Time;durP1;ratioP1;P1;durP2;ratioP2;P2;SDS_P1;SDS_P2;PMS_P1;PMS_P2;Temp;Humidity;BMP_temperature;BMP_pressure;BME280_temperature;BME280_humidity;BME280_pressure;Samples;Min_cycle;Max_cycle;Signal;HPM_P1;HPM_P2
2022/07/07 00:01:40;;;;;;;3.93;2.90;;;;;;;;;;4974815;28;20208;-77
2022/07/07 00:04:08;;;;;;;3.30;2.90;;;;;;;;;;4974368;28;20180;-76
2022/07/07 00:06:34;;;;;;;2.87;2.67;;;;;;;;;;4972856;28;20620;-76
2022/07/07 00:09:00;;;;;;;3.90;3.10;;;;;;;;;;4980095;28;20188;-76
2022/07/07 00:11:27;;;;;;;4.00;3.00;;;;;;;;;;4971867;28;20207;-76
2022/07/07 00:13:53;;;;;;;3.80;2.70;;;;;;;;;;4974013;28;20247;-76
2022/07/07 00:16:19;;;;;;;3.87;2.60;;;;;;;;;;4977605;28;20263;-76
2022/07/07 00:18:46;;;;;;;2.87;2.67;;;;;;;;;;4981101;28;20278;-76
2022/07/07 00:21:12;;;;;;;3.20;2.90;;;;;;;;;;4978130;28;20200;-76
2022/07/07 00:23:39;;;;;;;3.63;2.90;;;;;;;;;;4973699;28;20208;-77
2022/07/07 00:26:05;;;;;;;3.73;2.70;;;;;;;;;;4958428;28;20605;-76
2022/07/07 00:28:31;;;;;;;3.20;2.90;;;;;;;;;;4958634;28;20231;-76
2022/07/07 00:30:58;;;;;;;5.23;3.00;;;;;;;;;;4975266;28;20363;-75
2022/07/07 00:33:24;;;;;;;3.03;2.70;;;;;;;;;;4979672;28;20228;-76
2022/07/07 00:35:51;;;;;;;2.93;2.63;;;;;;;;;;4975334;28;20239;-76
2022/07/07 00:38:17;;;;;;;3.63;3.00;;;;;;;;;;4974858;28;20177;-76
2022/07/07 00:40:43;;;;;;;3.23;2.93;;;;;;;;;;4969099;28;20192;-76
2022/07/07 00:43:09;;;;;;;2.83;2.60;;;;;;;;;;4969474;28;20212;-76
2022/07/07 00:45:35;;;;;;;3.27;2.80;;;;;;;;;;4975908;28;20232;-76
2022/07/07 00:48:02;;;;;;;4.40;2.70;;;;;;;;;;4971802;28;20180;-76
2022/07/07 00:50:28;;;;;;;3.00;2.70;;;;;;;;;;4970210;28;20180;-76
2022/07/07 00:52:55;;;;;;;3.77;2.60;;;;;;;;;;4972275;28;20209;-76
2022/07/07 00:55:23;;;;;;;3.07;2.87;;;;;;;;;;4956074;28;20192;-76
2022/07/07 00:57:50;;;;;;;3.17;2.30;;;;;;;;;;4970743;28;20185;-76
2022/07/07 01:00:16;;;;;;;4.03;2.90;;;;;;;;;;4973114;28;20177;-76
2022/07/07 01:02:43;;;;;;;4.27;2.93;;;;;;;;;;4955098;28;20267;-76
2022/07/07 01:05:09;;;;;;;3.30;2.70;;;;;;;;;;4972828;28;20390;-76
2022/07/07 01:07:36;;;;;;;4.37;2.30;;;;;;;;;;4972439;28;20173;-76
2022/07/07 01:10:03;;;;;;;3.00;2.70;;;;;;;;;;4956077;28;20176;-76
2022/07/07 01:12:33;;;;;;;2.87;2.67;;;;;;;;;;4973018;28;20803;-76
2022/07/07 01:15:00;;;;;;;2.80;2.60;;;;;;;;;;4971173;28;20216;-76
2022/07/07 01:17:26;;;;;;;3.13;2.77;;;;;;;;;;4972803;28;20675;-77
2022/07/07 01:19:52;;;;;;;3.47;2.83;;;;;;;;;;4975417;28;20732;-77
2022/07/07 01:22:21;;;;;;;3.20;2.90;;;;;;;;;;4972444;28;20200;-77
2022/07/07 01:24:47;;;;;;;2.93;2.63;;;;;;;;;;4955408;28;20495;-76
2022/07/07 01:27:14;;;;;;;3.30;3.00;;;;;;;;;;4969905;28;20212;-76
2022/07/07 01:29:42;;;;;;;3.20;2.90;;;;;;;;;;4972030;28;20680;-77
2022/07/07 01:32:08;;;;;;;4.47;3.30;;;;;;;;;;4972125;28;20755;-76
2022/07/07 01:34:35;;;;;;;4.67;3.00;;;;;;;;;;4969826;28;20231;-76
2022/07/07 01:37:01;;;;;;;3.17;2.87;;;;;;;;;;4973835;28;20215;-76
2022/07/07 01:39:27;;;;;;;3.57;3.27;;;;;;;;;;4970582;28;20216;-76
2022/07/07 01:41:53;;;;;;;4.43;3.03;;;;;;;;;;4968367;28;20205;-76
2022/07/07 01:44:19;;;;;;;4.70;3.30;;;;;;;;;;4959380;28;20181;-76
2022/07/07 01:46:46;;;;;;;5.23;3.50;;;;;;;;;;4970635;28;20711;-76
2022/07/07 01:49:12;;;;;;;5.07;3.50;;;;;;;;;;4971265;28;20183;-76
2022/07/07 01:51:38;;;;;;;5.03;3.20;;;;;;;;;;4980879;28;20180;-76
2022/07/07 01:54:04;;;;;;;3.67;3.30;;;;;;;;;;4972383;28;20503;-76
2022/07/07 01:56:31;;;;;;;4.40;3.60;;;;;;;;;;4971333;28;20172;-76
2022/07/07 01:58:57;;;;;;;4.00;3.20;;;;;;;;;;4972488;28;20263;-75
2022/07/07 02:01:23;;;;;;;3.30;3.00;;;;;;;;;;4972035;28;20188;-75
2022/07/07 02:03:49;;;;;;;3.60;3.30;;;;;;;;;;4971083;28;20212;-75
2022/07/07 02:06:16;;;;;;;4.60;3.33;;;;;;;;;;4972633;28;20306;-76
2022/07/07 02:08:42;;;;;;;5.57;3.17;;;;;;;;;;4971727;28;20187;-76
2022/07/07 02:11:14;;;;;;;4.63;3.40;;;;;;;;;;4972084;28;20181;-75
2022/07/07 02:13:41;;;;;;;4.30;3.23;;;;;;;;;;4956521;28;20247;-76
2022/07/07 02:16:07;;;;;;;4.27;3.43;;;;;;;;;;4972199;28;20613;-76
2022/07/07 02:18:34;;;;;;;3.60;3.20;;;;;;;;;;4970752;28;20267;-76
2022/07/07 02:21:00;;;;;;;3.53;3.00;;;;;;;;;;4971617;28;20188;-77
2022/07/07 02:23:26;;;;;;;3.67;3.37;;;;;;;;;;4970959;28;20274;-76
2022/07/07 02:25:53;;;;;;;3.73;2.90;;;;;;;;;;4971371;28;20755;-76
2022/07/07 02:28:20;;;;;;;4.73;3.20;;;;;;;;;;4971480;28;20703;-76
2022/07/07 02:30:47;;;;;;;4.87;2.90;;;;;;;;;;4971323;28;20192;-76
2022/07/07 02:33:13;;;;;;;4.40;3.37;;;;;;;;;;4970370;28;20220;-75
2022/07/07 02:35:39;;;;;;;4.07;3.10;;;;;;;;;;4972025;28;20576;-76
2022/07/07 02:38:05;;;;;;;3.97;2.97;;;;;;;;;;4970227;28;20279;-75
2022/07/07 02:40:32;;;;;;;4.27;3.10;;;;;;;;;;4972098;28;20188;-76
2022/07/07 02:42:58;;;;;;;5.23;3.23;;;;;;;;;;4965617;28;20267;-75
2022/07/07 02:45:24;;;;;;;5.97;3.50;;;;;;;;;;4964604;28;20685;-76
2022/07/07 02:47:51;;;;;;;5.07;2.83;;;;;;;;;;4972088;28;20185;-75
2022/07/07 02:50:17;;;;;;;2.97;2.67;;;;;;;;;;4971834;28;20260;-75
2022/07/07 02:52:43;;;;;;;3.17;2.80;;;;;;;;;;4972452;28;20288;-75
2022/07/07 02:55:10;;;;;;;3.70;2.67;;;;;;;;;;4975880;28;20596;-76
2022/07/07 02:57:36;;;;;;;3.13;2.50;;;;;;;;;;4975259;28;20829;-76
2022/07/07 03:00:06;;;;;;;5.03;2.87;;;;;;;;;;4975674;28;20215;-76
2022/07/07 03:02:32;;;;;;;4.57;2.80;;;;;;;;;;4974537;28;20212;-76
2022/07/07 03:04:58;;;;;;;4.13;2.80;;;;;;;;;;4982676;28;20176;-76
2022/07/07 03:07:24;;;;;;;4.13;2.90;;;;;;;;;;4976443;28;20185;-76
2022/07/07 03:09:51;;;;;;;2.90;2.50;;;;;;;;;;4974857;28;20181;-76
2022/07/07 03:12:17;;;;;;;4.80;3.10;;;;;;;;;;4958846;28;20563;-75
2022/07/07 03:14:43;;;;;;;3.50;2.97;;;;;;;;;;4969550;28;20299;-76
2022/07/07 03:17:09;;;;;;;4.13;2.97;;;;;;;;;;4974994;28;20217;-75
2022/07/07 03:19:35;;;;;;;4.27;2.83;;;;;;;;;;4974245;28;20653;-76
2022/07/07 03:22:02;;;;;;;6.77;3.23;;;;;;;;;;4974151;28;20655;-76
2022/07/07 03:24:29;;;;;;;4.23;3.10;;;;;;;;;;4974823;28;20179;-76
2022/07/07 03:26:56;;;;;;;6.17;2.90;;;;;;;;;;4975192;28;20177;-75
2022/07/07 03:29:22;;;;;;;6.53;2.43;;;;;;;;;;4974485;28;20193;-75
2022/07/07 03:31:48;;;;;;;3.23;2.67;;;;;;;;;;4974429;28;20211;-76
2022/07/07 03:34:14;;;;;;;3.23;2.60;;;;;;;;;;4967440;28;20740;-76
2022/07/07 03:36:41;;;;;;;4.70;2.43;;;;;;;;;;4974314;28;20200;-75
2022/07/07 03:39:07;;;;;;;4.10;2.50;;;;;;;;;;4972509;28;20181;-76
2022/07/07 03:41:33;;;;;;;3.17;2.30;;;;;;;;;;4971509;28;20180;-75
2022/07/07 03:43:59;;;;;;;4.40;2.40;;;;;;;;;;4974566;28;20684;-76
2022/07/07 03:46:25;;;;;;;3.73;2.30;;;;;;;;;;4973591;28;20196;-76
2022/07/07 03:48:51;;;;;;;3.80;2.40;;;;;;;;;;4977357;28;20183;-75
2022/07/07 03:51:17;;;;;;;4.17;2.43;;;;;;;;;;4974141;28;20187;-75
2022/07/07 03:53:44;;;;;;;3.23;2.33;;;;;;;;;;4973905;28;20196;-75
2022/07/07 03:56:10;;;;;;;4.60;2.33;;;;;;;;;;4971248;28;20707;-76
2022/07/07 03:58:36;;;;;;;3.13;2.30;;;;;;;;;;4969724;28;20193;-76
2022/07/07 04:01:02;;;;;;;4.40;2.20;;;;;;;;;;4974447;28;20663;-76
2022/07/07 04:03:29;;;;;;;3.40;2.40;;;;;;;;;;4956150;28;20691;-75
2022/07/07 04:05:55;;;;;;;5.57;2.30;;;;;;;;;;4974069;28;20184;-76
2022/07/07 04:08:21;;;;;;;2.30;2.10;;;;;;;;;;4957977;28;20203;-75
2022/07/07 04:10:47;;;;;;;2.97;2.10;;;;;;;;;;4972080;28;20673;-75
2022/07/07 04:13:13;;;;;;;2.80;2.07;;;;;;;;;;4973835;28;20197;-75
2022/07/07 04:15:39;;;;;;;3.73;2.10;;;;;;;;;;4975394;28;20188;-76
2022/07/07 04:18:06;;;;;;;4.73;2.33;;;;;;;;;;4976454;28;20243;-75
2022/07/07 04:20:32;;;;;;;5.83;2.20;;;;;;;;;;4979057;28;20283;-75
2022/07/07 04:22:58;;;;;;;3.83;2.10;;;;;;;;;;4974446;28;20228;-75
2022/07/07 04:25:25;;;;;;;7.37;2.10;;;;;;;;;;4974380;28;20189;-76
2022/07/07 04:27:51;;;;;;;3.23;1.97;;;;;;;;;;4973266;28;20181;-76
2022/07/07 04:30:17;;;;;;;2.87;2.20;;;;;;;;;;4972555;28;20219;-76
2022/07/07 04:32:43;;;;;;;3.47;2.20;;;;;;;;;;4974687;28;20204;-76
2022/07/07 04:35:09;;;;;;;3.60;2.27;;;;;;;;;;4971137;28;20200;-76
2022/07/07 04:37:35;;;;;;;3.47;2.00;;;;;;;;;;4971099;28;20665;-76
2022/07/07 04:40:03;;;;;;;2.77;2.07;;;;;;;;;;4972334;28;20189;-76
2022/07/07 04:42:29;;;;;;;4.77;2.20;;;;;;;;;;4970088;28;20220;-76
2022/07/07 04:44:56;;;;;;;2.87;2.10;;;;;;;;;;4973327;28;20184;-76
2022/07/07 04:47:22;;;;;;;3.43;2.30;;;;;;;;;;4973471;28;20651;-76
2022/07/07 04:49:51;;;;;;;6.10;2.30;;;;;;;;;;4973007;28;20184;-75
2022/07/07 04:52:17;;;;;;;2.67;2.00;;;;;;;;;;4975765;28;21719;-75
2022/07/07 04:54:43;;;;;;;3.30;2.00;;;;;;;;;;4973756;28;20230;-76
2022/07/07 04:57:10;;;;;;;2.93;2.07;;;;;;;;;;4972943;28;20188;-75
2022/07/07 04:59:36;;;;;;;2.70;2.20;;;;;;;;;;4972254;28;21167;-75
2022/07/07 05:02:02;;;;;;;2.30;1.93;;;;;;;;;;4972930;28;20672;-76
2022/07/07 05:04:28;;;;;;;2.70;2.00;;;;;;;;;;4972773;28;20288;-76
2022/07/07 05:06:54;;;;;;;2.40;2.10;;;;;;;;;;4973390;28;20200;-76
2022/07/07 05:09:20;;;;;;;2.40;2.10;;;;;;;;;;4972747;28;20291;-76
2022/07/07 05:11:47;;;;;;;3.97;2.30;;;;;;;;;;4969696;28;20209;-76
2022/07/07 05:14:13;;;;;;;7.47;2.40;;;;;;;;;;4970083;28;20231;-75
2022/07/07 05:16:39;;;;;;;3.53;2.37;;;;;;;;;;4966944;28;20609;-76
2022/07/07 05:19:05;;;;;;;3.10;2.17;;;;;;;;;;4970735;28;20279;-75
2022/07/07 05:21:31;;;;;;;2.17;1.97;;;;;;;;;;4972296;28;20176;-75
2022/07/07 05:23:57;;;;;;;4.67;2.10;;;;;;;;;;4972517;28;20216;-76
2022/07/07 05:26:23;;;;;;;3.93;2.30;;;;;;;;;;4976567;28;20176;-75
2022/07/07 05:28:49;;;;;;;3.97;2.10;;;;;;;;;;4971881;28;20211;-75
2022/07/07 05:31:16;;;;;;;3.93;2.67;;;;;;;;;;4972999;28;20177;-76
2022/07/07 05:33:42;;;;;;;3.23;1.90;;;;;;;;;;4973343;28;20266;-75
2022/07/07 05:36:09;;;;;;;2.73;2.03;;;;;;;;;;4972431;28;20192;-75
2022/07/07 05:38:35;;;;;;;2.90;2.00;;;;;;;;;;4964894;28;20189;-76
2022/07/07 05:41:02;;;;;;;4.90;2.10;;;;;;;;;;4968931;28;20271;-76
2022/07/07 05:43:28;;;;;;;3.70;2.20;;;;;;;;;;4971503;28;20300;-76
2022/07/07 05:45:54;;;;;;;3.10;1.93;;;;;;;;;;4969988;28;20722;-76
2022/07/07 05:48:21;;;;;;;4.03;2.40;;;;;;;;;;4954935;28;20562;-75
2022/07/07 05:50:47;;;;;;;5.03;2.07;;;;;;;;;;4971419;28;20202;-76
2022/07/07 05:53:13;;;;;;;3.10;2.23;;;;;;;;;;4971979;28;20204;-76
2022/07/07 05:55:39;;;;;;;3.23;2.10;;;;;;;;;;4979646;28;20181;-75
2022/07/07 05:58:06;;;;;;;4.63;2.30;;;;;;;;;;4976621;28;20235;-76
2022/07/07 06:00:33;;;;;;;6.13;2.20;;;;;;;;;;4981329;28;20223;-75
2022/07/07 06:02:59;;;;;;;3.57;2.20;;;;;;;;;;4971724;28;20329;-75
2022/07/07 06:05:25;;;;;;;4.53;2.27;;;;;;;;;;4971790;28;20180;-75
2022/07/07 06:07:51;;;;;;;4.47;2.30;;;;;;;;;;4971643;28;20195;-76
2022/07/07 06:10:18;;;;;;;3.30;2.40;;;;;;;;;;4972154;28;20267;-76
2022/07/07 06:12:44;;;;;;;3.00;2.20;;;;;;;;;;4977220;28;20224;-76
2022/07/07 06:15:10;;;;;;;5.83;2.30;;;;;;;;;;4972169;28;20211;-75
2022/07/07 06:17:36;;;;;;;3.63;2.27;;;;;;;;;;4975125;28;20188;-76
2022/07/07 06:20:03;;;;;;;4.10;2.13;;;;;;;;;;4973808;28;20295;-76
2022/07/07 06:22:29;;;;;;;3.97;2.03;;;;;;;;;;4971203;28;20303;-76
2022/07/07 06:24:55;;;;;;;2.73;2.10;;;;;;;;;;4976832;28;20184;-76
2022/07/07 06:27:22;;;;;;;4.53;2.43;;;;;;;;;;4972206;28;20235;-76
2022/07/07 06:29:48;;;;;;;3.93;2.20;;;;;;;;;;4982268;28;20227;-75
2022/07/07 06:32:15;;;;;;;3.23;2.20;;;;;;;;;;4973821;28;20255;-75
2022/07/07 06:34:42;;;;;;;5.93;2.37;;;;;;;;;;4971780;28;20216;-78
2022/07/07 06:37:08;;;;;;;4.33;2.40;;;;;;;;;;4977095;28;20184;-76
2022/07/07 06:39:34;;;;;;;8.90;2.30;;;;;;;;;;4974133;28;20189;-76
2022/07/07 06:42:00;;;;;;;3.40;2.73;;;;;;;;;;4970548;28;20200;-77
2022/07/07 06:44:32;;;;;;;2.80;2.10;;;;;;;;;;4978765;28;20193;-75
2022/07/07 06:46:59;;;;;;;3.97;2.50;;;;;;;;;;4972733;28;20181;-76
2022/07/07 06:49:29;;;;;;;2.77;2.20;;;;;;;;;;4971994;28;20529;-75
2022/07/07 06:51:55;;;;;;;4.60;2.17;;;;;;;;;;4974265;28;20196;-75
2022/07/07 06:54:22;;;;;;;6.23;2.57;;;;;;;;;;4955717;28;20200;-75
2022/07/07 06:56:49;;;;;;;3.33;2.40;;;;;;;;;;4969413;28;20184;-75
2022/07/07 06:59:15;;;;;;;3.70;2.40;;;;;;;;;;4974766;28;20196;-75
2022/07/07 07:01:42;;;;;;;7.90;2.60;;;;;;;;;;4972833;28;20184;-75
2022/07/07 07:04:09;;;;;;;6.03;2.40;;;;;;;;;;4972138;28;20205;-76
2022/07/07 07:06:35;;;;;;;5.47;2.47;;;;;;;;;;4971069;28;20185;-75
2022/07/07 07:09:02;;;;;;;3.77;2.20;;;;;;;;;;4973710;28;20180;-75
2022/07/07 07:11:29;;;;;;;5.43;2.30;;;;;;;;;;4972705;28;20183;-75
2022/07/07 07:13:56;;;;;;;4.63;2.60;;;;;;;;;;4973106;28;20192;-75
2022/07/07 07:16:23;;;;;;;3.60;2.30;;;;;;;;;;4970604;28;20223;-79
2022/07/07 07:18:49;;;;;;;5.20;2.50;;;;;;;;;;4970441;28;20189;-77
2022/07/07 07:21:15;;;;;;;4.30;2.50;;;;;;;;;;4972398;28;20552;-76
2022/07/07 07:23:41;;;;;;;6.27;2.37;;;;;;;;;;4976869;28;20278;-79
2022/07/07 07:26:08;;;;;;;4.33;2.60;;;;;;;;;;4963996;28;20185;-80
2022/07/07 07:28:35;;;;;;;3.77;2.50;;;;;;;;;;4965595;28;20584;-79
2022/07/07 07:31:02;;;;;;;4.10;2.93;;;;;;;;;;4978847;28;20687;-80
2022/07/07 07:33:31;;;;;;;5.93;2.87;;;;;;;;;;4983606;28;20702;-79
2022/07/07 07:35:58;;;;;;;4.50;3.00;;;;;;;;;;4978207;28;20197;-80
2022/07/07 07:38:24;;;;;;;7.83;2.60;;;;;;;;;;4985929;28;20173;-80
2022/07/07 07:40:51;;;;;;;4.93;2.77;;;;;;;;;;4971894;28;20184;-80
2022/07/07 07:43:17;;;;;;;5.23;2.70;;;;;;;;;;4969475;28;20227;-80
2022/07/07 07:45:43;;;;;;;5.73;2.80;;;;;;;;;;4987052;28;20245;-81
2022/07/07 07:48:09;;;;;;;6.03;2.57;;;;;;;;;;4991715;28;20195;-81
2022/07/07 07:50:35;;;;;;;6.57;2.93;;;;;;;;;;4988732;28;20177;-80
2022/07/07 07:53:05;;;;;;;5.10;2.87;;;;;;;;;;4987946;28;20506;-80
2022/07/07 07:55:31;;;;;;;6.47;3.10;;;;;;;;;;4988156;28;20694;-81
2022/07/07 07:57:57;;;;;;;6.43;2.80;;;;;;;;;;4985417;28;23439;-80
2022/07/07 08:00:24;;;;;;;4.40;2.80;;;;;;;;;;4967196;28;20197;-80
2022/07/07 08:02:51;;;;;;;4.77;2.60;;;;;;;;;;4978370;28;20295;-81
2022/07/07 08:05:18;;;;;;;6.77;2.80;;;;;;;;;;4984789;28;20208;-81
2022/07/07 08:07:45;;;;;;;5.07;2.70;;;;;;;;;;4986998;28;20175;-85
2022/07/07 08:10:12;;;;;;;2.60;2.40;;;;;;;;;;4991013;28;20761;-81
2022/07/07 08:12:38;;;;;;;5.10;2.70;;;;;;;;;;4973443;28;20674;-81
2022/07/07 08:15:05;;;;;;;4.37;2.40;;;;;;;;;;4994582;28;20184;-80
2022/07/07 08:17:31;;;;;;;3.40;2.50;;;;;;;;;;4976997;28;20207;-81
2022/07/07 08:19:57;;;;;;;6.03;2.30;;;;;;;;;;4971920;28;20208;-80
2022/07/07 08:22:23;;;;;;;4.30;2.50;;;;;;;;;;4970163;28;20201;-80
2022/07/07 08:24:50;;;;;;;4.93;2.60;;;;;;;;;;4987761;28;20185;-81
2022/07/07 08:27:16;;;;;;;5.37;2.50;;;;;;;;;;4978224;28;20188;-81
2022/07/07 08:29:42;;;;;;;5.07;2.70;;;;;;;;;;4979380;28;20754;-81
2022/07/07 08:32:12;;;;;;;6.00;2.30;;;;;;;;;;4976516;28;20218;-80
2022/07/07 08:34:39;;;;;;;6.47;2.50;;;;;;;;;;4995508;28;20307;-80
2022/07/07 08:37:06;;;;;;;6.13;2.50;;;;;;;;;;4967316;28;20279;-80
2022/07/07 08:39:32;;;;;;;5.90;2.70;;;;;;;;;;4981584;28;20891;-81
2022/07/07 08:41:59;;;;;;;3.83;2.73;;;;;;;;;;4981829;28;20222;-80
2022/07/07 08:44:25;;;;;;;4.53;2.53;;;;;;;;;;4959202;28;20730;-80
2022/07/07 08:46:52;;;;;;;4.27;2.80;;;;;;;;;;4985462;28;20223;-80
2022/07/07 08:49:18;;;;;;;5.97;2.90;;;;;;;;;;4989728;28;20208;-81
2022/07/07 08:51:45;;;;;;;4.80;3.00;;;;;;;;;;4982720;28;20181;-81
2022/07/07 08:54:12;;;;;;;3.63;2.67;;;;;;;;;;4982013;28;20281;-82
2022/07/07 08:56:38;;;;;;;8.33;2.80;;;;;;;;;;4983709;28;20203;-81
2022/07/07 08:59:06;;;;;;;4.90;2.60;;;;;;;;;;4968608;28;20204;-81
2022/07/07 09:01:32;;;;;;;5.77;2.63;;;;;;;;;;4971368;28;20617;-86
2022/07/07 09:03:58;;;;;;;5.77;2.57;;;;;;;;;;4949393;28;20216;-82
2022/07/07 09:06:25;;;;;;;3.17;2.53;;;;;;;;;;4981457;28;20195;-84
2022/07/07 09:08:51;;;;;;;4.27;2.60;;;;;;;;;;4948658;28;20188;-84
2022/07/07 09:11:28;;;;;;;4.80;2.60;;;;;;;;;;4979226;28;20184;-84
2022/07/07 09:14:09;;;;;;;4.67;2.50;;;;;;;;;;4946547;28;20284;-81
2022/07/07 09:16:36;;;;;;;5.70;2.70;;;;;;;;;;4981103;28;20200;-80
2022/07/07 09:19:03;;;;;;;6.23;2.70;;;;;;;;;;4979441;28;20192;-80
2022/07/07 09:21:33;;;;;;;6.00;2.73;;;;;;;;;;4979672;28;20185;-80
2022/07/07 09:24:00;;;;;;;4.83;2.60;;;;;;;;;;4982433;28;20208;-80
2022/07/07 09:26:37;;;;;;;7.53;3.00;;;;;;;;;;4976011;28;20180;-81
2022/07/07 09:29:04;;;;;;;7.20;3.20;;;;;;;;;;4976941;28;20207;-79
2022/07/07 09:31:49;;;;;;;6.40;3.30;;;;;;;;;;4948149;28;20199;-79
2022/07/07 09:34:15;;;;;;;6.30;2.90;;;;;;;;;;4980837;28;20184;-80
2022/07/07 09:39:38;;;;;;;5.43;3.10;;;;;;;;;;4945392;28;20255;-79
2022/07/07 09:42:17;;;;;;;5.73;3.20;;;;;;;;;;4969021;28;20248;-79
2022/07/07 09:44:43;;;;;;;4.80;2.80;;;;;;;;;;4959239;28;20191;-79
2022/07/07 09:47:09;;;;;;;5.50;3.10;;;;;;;;;;4966173;28;20668;-79
2022/07/07 09:49:42;;;;;;;6.53;3.17;;;;;;;;;;4980713;28;20559;-79
2022/07/07 09:52:15;;;;;;;3.40;2.80;;;;;;;;;;4972487;28;20686;-78
2022/07/07 09:54:48;;;;;;;6.40;3.00;;;;;;;;;;4972131;28;20188;-79
2022/07/07 09:57:14;;;;;;;3.57;2.60;;;;;;;;;;4957166;28;20192;-80
2022/07/07 09:59:41;;;;;;;3.77;2.20;;;;;;;;;;4972400;28;20176;-80
2022/07/07 10:02:13;;;;;;;3.77;2.40;;;;;;;;;;4980437;28;20230;-80
2022/07/07 10:04:40;;;;;;;5.67;2.60;;;;;;;;;;4984291;28;20184;-79
2022/07/07 10:07:10;;;;;;;4.10;2.57;;;;;;;;;;4979299;28;20176;-80
2022/07/07 10:09:37;;;;;;;4.23;2.77;;;;;;;;;;4971509;28;20240;-80
2022/07/07 10:12:04;;;;;;;2.97;2.43;;;;;;;;;;4971485;28;20227;-79
2022/07/07 10:14:34;;;;;;;6.00;2.57;;;;;;;;;;4973368;28;20562;-79
2022/07/07 10:17:01;;;;;;;4.53;2.63;;;;;;;;;;4949721;28;20190;-80
2022/07/07 10:19:27;;;;;;;4.73;2.60;;;;;;;;;;4974262;28;20185;-80
2022/07/07 10:21:54;;;;;;;5.90;2.40;;;;;;;;;;4974443;28;20212;-81
2022/07/07 10:24:22;;;;;;;2.77;2.13;;;;;;;;;;4974513;28;20231;-80
2022/07/07 10:26:52;;;;;;;4.07;2.70;;;;;;;;;;4940950;28;20327;-82
2022/07/07 10:29:35;;;;;;;6.07;2.50;;;;;;;;;;4976757;28;20216;-80
2022/07/07 10:32:02;;;;;;;4.53;2.70;;;;;;;;;;4976848;28;20216;-83
2022/07/07 10:34:33;;;;;;;2.93;2.60;;;;;;;;;;4956601;28;20200;-80
2022/07/07 10:36:59;;;;;;;3.97;2.57;;;;;;;;;;4974443;28;20251;-84
2022/07/07 10:39:27;;;;;;;5.30;2.47;;;;;;;;;;4966225;28;20211;-80
2022/07/07 10:41:53;;;;;;;5.90;2.43;;;;;;;;;;4960642;28;20625;-80
2022/07/07 10:44:20;;;;;;;5.17;2.13;;;;;;;;;;4971917;28;20211;-81
2022/07/07 10:47:01;;;;;;;4.03;2.17;;;;;;;;;;4973155;28;20248;-81
2022/07/07 10:49:44;;;;;;;4.27;2.23;;;;;;;;;;4969088;28;20589;-80
2022/07/07 10:52:10;;;;;;;3.20;1.60;;;;;;;;;;4971193;28;20298;-81
2022/07/07 10:54:38;;;;;;;3.03;1.50;;;;;;;;;;4981462;28;20195;-81
2022/07/07 10:57:07;;;;;;;2.73;1.50;;;;;;;;;;4991680;28;20188;-81
2022/07/07 10:59:52;;;;;;;4.43;1.63;;;;;;;;;;4975545;28;22074;-81
2022/07/07 11:02:30;;;;;;;10.03;2.00;;;;;;;;;;4973809;28;20245;-81
2022/07/07 11:04:57;;;;;;;3.30;1.60;;;;;;;;;;4966978;28;20272;-79
2022/07/07 11:07:24;;;;;;;3.83;1.60;;;;;;;;;;4964628;28;20544;-78
2022/07/07 11:10:00;;;;;;;2.03;1.40;;;;;;;;;;4991535;28;20193;-78
2022/07/07 11:12:39;;;;;;;1.60;1.50;;;;;;;;;;4973719;28;20230;-79
2022/07/07 11:15:21;;;;;;;2.20;1.23;;;;;;;;;;4940880;28;20680;-79
2022/07/07 11:17:48;;;;;;;1.40;1.30;;;;;;;;;;4975380;28;20188;-80
2022/07/07 11:20:15;;;;;;;2.40;1.30;;;;;;;;;;4972723;28;20181;-80
2022/07/07 11:22:42;;;;;;;2.10;1.30;;;;;;;;;;4973940;28;20575;-79
2022/07/07 11:25:09;;;;;;;1.30;1.20;;;;;;;;;;4974335;28;20215;-79
2022/07/07 11:27:36;;;;;;;1.73;1.20;;;;;;;;;;4969888;28;20634;-80
2022/07/07 11:30:04;;;;;;;5.53;1.20;;;;;;;;;;4973885;28;20220;-79
2022/07/07 11:32:39;;;;;;;3.20;1.23;;;;;;;;;;4975549;28;20227;-79
2022/07/07 11:35:06;;;;;;;1.73;1.20;;;;;;;;;;4985552;28;20238;-79
2022/07/07 11:37:33;;;;;;;1.30;1.10;;;;;;;;;;4975626;28;20191;-80
2022/07/07 11:39:59;;;;;;;1.40;1.30;;;;;;;;;;4984428;28;20198;-84
2022/07/07 11:42:27;;;;;;;2.07;1.27;;;;;;;;;;4973395;28;20209;-83
2022/07/07 11:44:53;;;;;;;1.20;1.10;;;;;;;;;;4986392;28;20594;-81
2022/07/07 11:47:19;;;;;;;1.63;1.40;;;;;;;;;;4974597;28;20595;-81
2022/07/07 11:49:45;;;;;;;1.67;1.23;;;;;;;;;;4988960;28;20184;-82
2022/07/07 11:52:13;;;;;;;1.73;1.30;;;;;;;;;;4990714;28;20200;-83
2022/07/07 11:54:43;;;;;;;3.10;1.50;;;;;;;;;;4972938;28;20193;-79
2022/07/07 11:57:09;;;;;;;1.40;1.30;;;;;;;;;;4971700;28;20264;-78
2022/07/07 11:59:35;;;;;;;1.30;1.20;;;;;;;;;;4973551;28;20215;-78
2022/07/07 12:02:01;;;;;;;2.10;1.20;;;;;;;;;;4970614;28;20681;-78
2022/07/07 12:04:28;;;;;;;1.53;1.33;;;;;;;;;;4976645;28;20208;-78
2022/07/07 12:06:54;;;;;;;1.40;1.30;;;;;;;;;;4971974;28;20710;-79
2022/07/07 12:09:21;;;;;;;1.40;1.30;;;;;;;;;;4969583;28;20180;-79
2022/07/07 12:11:48;;;;;;;1.70;1.40;;;;;;;;;;4959453;28;20185;-78
2022/07/07 12:14:15;;;;;;;1.30;1.20;;;;;;;;;;4971592;28;20188;-78
2022/07/07 12:16:45;;;;;;;1.20;1.10;;;;;;;;;;4973724;28;20263;-78
2022/07/07 12:19:12;;;;;;;1.30;1.20;;;;;;;;;;4973963;28;20279;-77
2022/07/07 12:21:45;;;;;;;1.83;1.20;;;;;;;;;;4979493;28;20189;-78
2022/07/07 12:24:18;;;;;;;2.10;1.37;;;;;;;;;;4973588;28;20263;-78
2022/07/07 12:26:49;;;;;;;1.40;1.30;;;;;;;;;;4964459;28;20184;-78
2022/07/07 12:29:17;;;;;;;2.40;1.40;;;;;;;;;;4970920;28;20683;-78
2022/07/07 12:31:43;;;;;;;2.07;1.50;;;;;;;;;;4973188;28;20173;-80
2022/07/07 12:34:10;;;;;;;1.40;1.30;;;;;;;;;;4970397;28;20195;-78
2022/07/07 12:36:36;;;;;;;1.93;1.20;;;;;;;;;;4973740;28;20212;-78
2022/07/07 12:39:04;;;;;;;2.57;1.40;;;;;;;;;;4971475;28;20193;-77
2022/07/07 12:41:34;;;;;;;2.53;1.30;;;;;;;;;;4956470;28;20176;-78
2022/07/07 12:44:13;;;;;;;1.93;1.10;;;;;;;;;;4977320;28;20238;-77
2022/07/07 12:46:39;;;;;;;4.00;1.10;;;;;;;;;;4970893;28;20223;-78
2022/07/07 12:49:06;;;;;;;1.47;1.10;;;;;;;;;;4957242;28;20602;-79
2022/07/07 12:51:33;;;;;;;1.40;1.30;;;;;;;;;;4964899;28;20614;-77
2022/07/07 12:54:00;;;;;;;1.77;1.20;;;;;;;;;;4968200;28;20181;-77
2022/07/07 12:56:33;;;;;;;2.20;1.20;;;;;;;;;;4971952;28;20590;-77
2022/07/07 12:59:00;;;;;;;2.30;1.20;;;;;;;;;;4969631;28;20188;-77
2022/07/07 13:01:27;;;;;;;5.40;1.47;;;;;;;;;;4971907;28;20192;-77
2022/07/07 13:03:58;;;;;;;3.27;1.13;;;;;;;;;;4981174;28;20223;-77
2022/07/07 13:06:24;;;;;;;3.77;0.90;;;;;;;;;;4975175;28;20177;-77
2022/07/07 13:08:51;;;;;;;2.90;0.90;;;;;;;;;;4971745;28;20189;-78
2022/07/07 13:11:18;;;;;;;1.93;0.83;;;;;;;;;;4972969;28;20187;-78
2022/07/07 13:13:45;;;;;;;0.90;0.90;;;;;;;;;;4971341;28;20208;-77
2022/07/07 13:16:11;;;;;;;1.67;0.90;;;;;;;;;;4973116;28;20184;-78
2022/07/07 13:18:38;;;;;;;1.43;0.83;;;;;;;;;;4971759;28;20715;-78
2022/07/07 13:21:05;;;;;;;1.20;0.87;;;;;;;;;;4972430;28;20177;-77
2022/07/07 13:23:32;;;;;;;1.30;0.87;;;;;;;;;;4957093;28;20251;-78
2022/07/07 13:25:59;;;;;;;3.13;0.90;;;;;;;;;;4967188;28;20549;-77
2022/07/07 13:28:25;;;;;;;1.53;1.00;;;;;;;;;;4971276;28;20177;-77
2022/07/07 13:30:52;;;;;;;1.97;1.10;;;;;;;;;;4972349;28;20254;-78
2022/07/07 13:33:18;;;;;;;1.60;1.10;;;;;;;;;;4972149;28;20211;-77
2022/07/07 13:35:45;;;;;;;1.57;1.20;;;;;;;;;;4971461;28;20181;-77
2022/07/07 13:38:12;;;;;;;1.10;1.00;;;;;;;;;;4955338;28;20291;-78
2022/07/07 13:40:39;;;;;;;3.77;1.77;;;;;;;;;;4970448;28;20181;-78
2022/07/07 13:43:05;;;;;;;1.20;1.10;;;;;;;;;;4975437;28;20278;-77
2022/07/07 13:45:33;;;;;;;3.73;1.27;;;;;;;;;;4970558;28;20192;-78
2022/07/07 13:47:59;;;;;;;2.97;1.30;;;;;;;;;;4971635;28;20176;-78
2022/07/07 13:50:25;;;;;;;2.10;1.27;;;;;;;;;;4971880;28;20177;-76
2022/07/07 13:52:51;;;;;;;3.10;1.47;;;;;;;;;;4971886;28;20680;-76
2022/07/07 13:55:18;;;;;;;3.03;1.60;;;;;;;;;;4972485;28;20203;-76
2022/07/07 13:57:44;;;;;;;2.40;1.23;;;;;;;;;;4973215;28;20188;-76
2022/07/07 14:00:11;;;;;;;2.40;1.40;;;;;;;;;;4980155;28;20290;-77
2022/07/07 14:02:38;;;;;;;1.60;1.30;;;;;;;;;;4970581;28;20263;-77
2022/07/07 14:05:05;;;;;;;1.80;1.20;;;;;;;;;;4970813;28;20209;-77
2022/07/07 14:07:31;;;;;;;2.13;1.30;;;;;;;;;;4974052;28;20683;-77
2022/07/07 14:09:59;;;;;;;3.30;1.40;;;;;;;;;;4971698;28;20339;-76
2022/07/07 14:12:27;;;;;;;1.23;1.10;;;;;;;;;;4966464;28;20208;-77
2022/07/07 14:14:53;;;;;;;3.77;1.50;;;;;;;;;;4978266;28;20669;-77
2022/07/07 14:17:20;;;;;;;1.67;1.20;;;;;;;;;;4969350;28;20272;-78
2022/07/07 14:19:46;;;;;;;2.50;1.03;;;;;;;;;;4966717;28;20183;-78
2022/07/07 14:22:13;;;;;;;1.83;1.10;;;;;;;;;;4968599;28;20204;-77
2022/07/07 14:24:39;;;;;;;3.27;1.47;;;;;;;;;;4971483;28;20223;-77
2022/07/07 14:27:06;;;;;;;2.40;1.00;;;;;;;;;;4977869;28;20191;-77
2022/07/07 14:29:32;;;;;;;1.40;1.20;;;;;;;;;;4952727;28;20192;-77
2022/07/07 14:31:59;;;;;;;1.87;1.00;;;;;;;;;;4970707;28;20215;-77
2022/07/07 14:34:25;;;;;;;2.27;1.20;;;;;;;;;;4970565;28;20189;-77
2022/07/07 14:36:51;;;;;;;1.67;1.17;;;;;;;;;;4969409;28;20193;-76
2022/07/07 14:39:17;;;;;;;1.50;1.20;;;;;;;;;;4969810;28;20207;-77
2022/07/07 14:41:43;;;;;;;2.43;1.27;;;;;;;;;;4972790;28;20207;-79
2022/07/07 14:44:09;;;;;;;1.63;1.13;;;;;;;;;;4972702;28;20930;-80
2022/07/07 14:46:37;;;;;;;2.77;1.27;;;;;;;;;;4978419;28;20265;-83